Terminal Aerodrome Forecast
Issued by NWS

Home | Current Version | Previous Version | Text Only | Print | Product List | Glossary On
Versions: 1 2 3 4 5 6 7 8 9 10 11 12
000
FTUS41 KLWX 312300
TAFMTN
TAF
KMTN 312320Z 0100/0124 16005KT P6SM BKN050
      AMD NOT SKED 0102/0112=

USA.gov is the U.S. government's official web portal to all federal, state and local government web resources and services.